createdAt,value
2018-07-15T00:00:06.867Z,16.12
2018-07-15T00:00:10.965Z,16.12
2018-07-15T00:00:15.079Z,16.12
2018-07-15T00:00:19.286Z,16.12
2018-07-15T00:00:23.503Z,16.13
2018-07-15T00:00:27.708Z,16.12
2018-07-15T00:00:31.706Z,16.12
2018-07-15T00:00:35.923Z,16.12
2018-07-15T00:00:40.020Z,16.12
2018-07-15T00:00:44.222Z,16.11
2018-07-15T00:00:48.543Z,16.12
2018-07-15T00:00:52.856Z,16.12
2018-07-15T00:00:57.065Z,16.12
2018-07-15T00:01:01.383Z,16.12
2018-07-15T00:01:05.807Z,16.12
2018-07-15T00:01:09.915Z,16.11
2018-07-15T00:01:14.131Z,16.11
2018-07-15T00:01:18.442Z,16.12
2018-07-15T00:01:22.757Z,16.11
2018-07-15T00:01:26.960Z,16.11
2018-07-15T00:01:31.165Z,16.11
2018-07-15T00:01:35.380Z,16.11
2018-07-15T00:01:39.698Z,16.12
2018-07-15T00:01:44.008Z,16.1
2018-07-15T00:01:48.218Z,16.1
2018-07-15T00:01:52.551Z,16.1
2018-07-15T00:01:56.756Z,16.1
2018-07-15T00:02:01.116Z,16.1
2018-07-15T00:02:05.319Z,16.1
2018-07-15T00:02:09.538Z,16.12
2018-07-15T00:02:13.743Z,16.1
2018-07-15T00:02:17.848Z,16.1
2018-07-15T00:02:21.953Z,16.1
2018-07-15T00:02:26.158Z,16.11
2018-07-15T00:02:30.358Z,16.1
2018-07-15T00:02:34.670Z,16.1
2018-07-15T00:02:38.760Z,16.1
2018-07-15T00:02:42.960Z,16.1
2018-07-15T00:02:47.161Z,16.1
2018-07-15T00:02:51.360Z,16.1
2018-07-15T00:02:55.559Z,16.1
2018-07-15T00:02:59.660Z,16.1
2018-07-15T00:03:03.783Z,16.1
2018-07-15T00:03:07.988Z,16.1
2018-07-15T00:03:12.300Z,16.1
2018-07-15T00:03:16.512Z,16.1
2018-07-15T00:03:20.826Z,16.1
2018-07-15T00:03:24.932Z,16.1
2018-07-15T00:03:29.243Z,16.1
2018-07-15T00:03:33.363Z,16.1
2018-07-15T00:03:37.677Z,16.1
2018-07-15T00:03:41.991Z,16.1
2018-07-15T00:03:46.195Z,16.1
2018-07-15T00:03:50.397Z,16.1
2018-07-15T00:03:54.730Z,16.1
2018-07-15T00:03:58.931Z,16.1
2018-07-15T00:04:02.923Z,16.09
2018-07-15T00:04:06.911Z,16.09
2018-07-15T00:04:11.221Z,16.1
2018-07-15T00:04:15.531Z,16.09
2018-07-15T00:04:19.750Z,16.09
2018-07-15T00:04:24.055Z,16.1
2018-07-15T00:04:28.369Z,16.09
2018-07-15T00:04:32.470Z,16.09
2018-07-15T00:04:36.670Z,16.09
2018-07-15T00:04:40.878Z,16.09
2018-07-15T00:04:45.184Z,16.09
2018-07-15T00:04:49.395Z,16.1
2018-07-15T00:04:53.715Z,16.09
2018-07-15T00:04:57.706Z,16.09
2018-07-15T00:05:02.017Z,16.09
2018-07-15T00:05:06.016Z,16.09
2018-07-15T00:05:10.218Z,16.08
2018-07-15T00:05:14.433Z,16.09
2018-07-15T00:05:18.783Z,16.09
2018-07-15T00:05:22.990Z,16.09
2018-07-15T00:05:27.195Z,16.09
2018-07-15T00:05:31.518Z,16.09
2018-07-15T00:05:35.621Z,16.08
2018-07-15T00:05:39.828Z,16.08
2018-07-15T00:05:44.047Z,16.09
2018-07-15T00:05:48.249Z,16.08
2018-07-15T00:05:52.570Z,16.08
2018-07-15T00:05:56.666Z,16.08
2018-07-15T00:06:00.983Z,16.09
2018-07-15T00:06:05.088Z,16.09
2018-07-15T00:06:09.301Z,16.09
2018-07-15T00:06:13.608Z,16.08
2018-07-15T00:06:17.926Z,16.09
2018-07-15T00:06:22.131Z,16.09
2018-07-15T00:06:26.337Z,16.09
2018-07-15T00:06:30.652Z,16.08
2018-07-15T00:06:34.969Z,16.08
2018-07-15T00:06:39.281Z,16.08
2018-07-15T00:06:43.483Z,16.08
2018-07-15T00:06:47.606Z,16.08
2018-07-15T00:06:51.805Z,16.08
2018-07-15T00:06:56.007Z,16.08
2018-07-15T00:07:00.101Z,16.08
2018-07-15T00:07:04.309Z,16.08
2018-07-15T00:07:08.511Z,16.08
2018-07-15T00:07:12.824Z,16.08
2018-07-15T00:07:17.040Z,16.08
2018-07-15T00:07:21.240Z,16.08
2018-07-15T00:07:25.445Z,16.08
2018-07-15T00:07:29.328Z,16.08
2018-07-15T00:07:33.647Z,16.08
2018-07-15T00:07:37.908Z,16.07
2018-07-15T00:07:42.224Z,16.07
2018-07-15T00:07:46.433Z,16.07
2018-07-15T00:07:50.637Z,16.07
2018-07-15T00:07:54.839Z,16.07
2018-07-15T00:07:59.155Z,16.06
2018-07-15T00:08:03.397Z,16.07
2018-07-15T00:08:07.386Z,16.07
2018-07-15T00:08:11.599Z,16.06
2018-07-15T00:08:15.914Z,16.06
2018-07-15T00:08:20.225Z,16.06
2018-07-15T00:08:24.325Z,16.06
2018-07-15T00:08:28.534Z,16.06
2018-07-15T00:08:32.744Z,16.05
2018-07-15T00:08:36.947Z,16.06
2018-07-15T00:08:41.148Z,16.05
2018-07-15T00:08:45.243Z,16.06
2018-07-15T00:08:49.463Z,16.06
2018-07-15T00:08:53.777Z,16.06
2018-07-15T00:08:58.087Z,16.06
2018-07-15T00:09:02.179Z,16.06
2018-07-15T00:09:06.397Z,16.05
2018-07-15T00:09:10.604Z,16.05
2018-07-15T00:09:14.809Z,16.04
2018-07-15T00:09:19.010Z,16.05
2018-07-15T00:09:23.211Z,16.06
2018-07-15T00:09:27.092Z,16.05
2018-07-15T00:09:31.299Z,16.04
2018-07-15T00:09:35.393Z,16.05
2018-07-15T00:09:39.703Z,16.06
2018-07-15T00:09:43.905Z,16.05
2018-07-15T00:09:48.120Z,16.05
2018-07-15T00:09:52.339Z,16.04
2018-07-15T00:09:56.440Z,16.05
2018-07-15T00:10:00.765Z,16.04
2018-07-15T00:10:04.873Z,16.04
2018-07-15T00:10:09.027Z,16.05
2018-07-15T00:10:13.228Z,16.04
2018-07-15T00:10:17.431Z,16.04
2018-07-15T00:10:21.648Z,16.04
2018-07-15T00:10:25.978Z,16.04
2018-07-15T00:10:30.176Z,16.03
2018-07-15T00:10:34.439Z,16.03
2018-07-15T00:10:38.750Z,16.04
2018-07-15T00:10:42.846Z,16.04
2018-07-15T00:10:46.960Z,16.03
2018-07-15T00:10:51.277Z,16.03
2018-07-15T00:10:55.485Z,16.04
2018-07-15T00:10:59.587Z,16.04
2018-07-15T00:11:03.783Z,16.03
2018-07-15T00:11:07.777Z,16.04
2018-07-15T00:11:11.975Z,16.03
2018-07-15T00:11:16.176Z,16.03
2018-07-15T00:11:20.488Z,16.03
2018-07-15T00:11:24.687Z,16.03
2018-07-15T00:11:28.783Z,16.04
2018-07-15T00:11:32.984Z,16.03
2018-07-15T00:11:37.196Z,16.03
2018-07-15T00:11:41.501Z,16.03
2018-07-15T00:11:45.717Z,16.03
2018-07-15T00:11:50.028Z,16.03
2018-07-15T00:11:54.342Z,16.03
2018-07-15T00:11:58.542Z,16.02
2018-07-15T00:12:02.745Z,16.02
2018-07-15T00:12:06.956Z,16.03
2018-07-15T00:12:11.051Z,16.03
2018-07-15T00:12:15.360Z,16.02
2018-07-15T00:12:19.678Z,16.03
2018-07-15T00:12:23.880Z,16.02
2018-07-15T00:12:28.186Z,16.02
2018-07-15T00:12:32.394Z,16.02
2018-07-15T00:12:36.714Z,16.01
2018-07-15T00:12:40.924Z,16.02
2018-07-15T00:12:45.016Z,16.01
2018-07-15T00:12:49.229Z,16.01
2018-07-15T00:12:53.429Z,16.01
2018-07-15T00:12:57.637Z,16.01
2018-07-15T00:13:01.952Z,16.01
2018-07-15T00:13:06.047Z,16.01
2018-07-15T00:13:10.263Z,16.01
2018-07-15T00:13:14.575Z,16
2018-07-15T00:13:18.890Z,16.01
2018-07-15T00:13:23.201Z,16.01
2018-07-15T00:13:27.414Z,16.01
2018-07-15T00:13:31.627Z,16
2018-07-15T00:13:35.930Z,16.01
2018-07-15T00:13:40.137Z,16.01
2018-07-15T00:13:44.240Z,16
2018-07-15T00:13:48.542Z,16
2018-07-15T00:13:52.847Z,15.99
2018-07-15T00:13:56.837Z,15.99
2018-07-15T00:14:01.148Z,16
2018-07-15T00:14:05.411Z,15.99
2018-07-15T00:14:09.733Z,15.99
2018-07-15T00:14:14.047Z,16
2018-07-15T00:14:18.153Z,15.99
2018-07-15T00:14:22.378Z,15.99
2018-07-15T00:14:26.473Z,15.99
2018-07-15T00:14:30.782Z,15.98
2018-07-15T00:14:35.093Z,15.99
2018-07-15T00:14:39.401Z,15.99
2018-07-15T00:14:43.708Z,15.98
2018-07-15T00:14:47.921Z,15.98
2018-07-15T00:14:52.018Z,15.98
2018-07-15T00:14:56.221Z,15.98
2018-07-15T00:15:00.314Z,15.98
2018-07-15T00:15:04.409Z,15.98
2018-07-15T00:15:08.395Z,15.97
2018-07-15T00:15:12.592Z,15.98
2018-07-15T00:15:16.796Z,15.97
2018-07-15T00:15:20.999Z,15.97
2018-07-15T00:15:25.100Z,15.96
2018-07-15T00:15:29.416Z,15.96
2018-07-15T00:15:33.626Z,15.96
2018-07-15T00:15:37.622Z,15.96
2018-07-15T00:15:41.720Z,15.97
2018-07-15T00:15:46.030Z,15.95
2018-07-15T00:15:50.123Z,15.95
2018-07-15T00:15:54.320Z,15.96
2018-07-15T00:15:58.683Z,15.94
2018-07-15T00:16:02.791Z,15.94
2018-07-15T00:16:06.999Z,15.94
2018-07-15T00:16:11.100Z,15.94
2018-07-15T00:16:15.306Z,15.94
2018-07-15T00:16:19.523Z,15.94
2018-07-15T00:16:23.834Z,15.92
2018-07-15T00:16:28.060Z,15.93
2018-07-15T00:16:32.615Z,15.93
2018-07-15T00:16:36.952Z,15.93
2018-07-15T00:16:41.152Z,15.93
2018-07-15T00:16:45.459Z,15.92
2018-07-15T00:16:49.775Z,15.92
2018-07-15T00:16:53.983Z,15.91
2018-07-15T00:16:58.080Z,15.91
2018-07-15T00:17:02.489Z,15.92
2018-07-15T00:17:06.808Z,15.91
2018-07-15T00:17:11.026Z,15.9
2018-07-15T00:17:15.237Z,15.9
2018-07-15T00:17:19.555Z,15.9
2018-07-15T00:17:23.756Z,15.89
2018-07-15T00:17:28.064Z,15.88
2018-07-15T00:17:32.267Z,15.88
2018-07-15T00:17:36.475Z,15.89
2018-07-15T00:17:40.676Z,15.87
2018-07-15T00:17:44.878Z,15.87
2018-07-15T00:17:49.082Z,15.87
2018-07-15T00:17:53.287Z,15.87
2018-07-15T00:17:57.605Z,15.86
2018-07-15T00:18:01.814Z,15.86
2018-07-15T00:18:05.804Z,15.87
2018-07-15T00:18:09.935Z,15.85
2018-07-15T00:18:14.247Z,15.85
2018-07-15T00:18:18.448Z,15.85
2018-07-15T00:18:22.604Z,15.84
2018-07-15T00:18:26.920Z,15.84
2018-07-15T00:18:31.116Z,15.84
2018-07-15T00:18:35.338Z,15.83
2018-07-15T00:18:39.327Z,15.83
2018-07-15T00:18:43.644Z,15.83
2018-07-15T00:18:47.739Z,15.83
2018-07-15T00:18:51.941Z,15.82
2018-07-15T00:18:56.254Z,15.82
2018-07-15T00:19:00.567Z,15.81
2018-07-15T00:19:04.777Z,15.81
2018-07-15T00:19:08.769Z,15.81
2018-07-15T00:19:12.976Z,15.8
2018-07-15T00:19:17.184Z,15.81
2018-07-15T00:19:21.503Z,15.8
2018-07-15T00:19:25.599Z,15.78
2018-07-15T00:19:29.702Z,15.78
2018-07-15T00:19:33.696Z,15.78
2018-07-15T00:19:38.007Z,15.78
2018-07-15T00:19:42.220Z,15.78
2018-07-15T00:19:46.430Z,15.78
2018-07-15T00:19:50.683Z,15.77
2018-07-15T00:19:54.987Z,15.78
2018-07-15T00:19:59.079Z,15.78
2018-07-15T00:20:03.075Z,15.77
2018-07-15T00:20:07.381Z,15.78
2018-07-15T00:20:11.702Z,15.78
2018-07-15T00:20:16.097Z,15.77
2018-07-15T00:20:20.480Z,15.77
2018-07-15T00:20:24.583Z,15.77
2018-07-15T00:20:28.791Z,15.77
2018-07-15T00:20:32.998Z,15.75
2018-07-15T00:20:37.096Z,15.75
2018-07-15T00:20:41.410Z,15.76
2018-07-15T00:20:45.624Z,15.76
2018-07-15T00:20:49.515Z,15.76
2018-07-15T00:20:53.729Z,15.74
2018-07-15T00:20:57.837Z,15.75
2018-07-15T00:21:02.249Z,15.75
2018-07-15T00:21:06.512Z,15.75
2018-07-15T00:21:10.728Z,15.74
2018-07-15T00:21:14.936Z,15.74
2018-07-15T00:21:19.249Z,15.74
2018-07-15T00:21:23.573Z,15.74
2018-07-15T00:21:27.784Z,15.74
2018-07-15T00:21:32.105Z,15.74
2018-07-15T00:21:36.312Z,15.74
2018-07-15T00:21:40.524Z,15.73
2018-07-15T00:21:44.627Z,15.73
2018-07-15T00:21:48.828Z,15.73
2018-07-15T00:21:53.036Z,15.73
2018-07-15T00:21:57.031Z,15.73
2018-07-15T00:22:01.236Z,15.73
2018-07-15T00:22:05.442Z,15.73
2018-07-15T00:22:09.750Z,15.74
2018-07-15T00:22:13.856Z,15.73
2018-07-15T00:22:18.168Z,15.74
2018-07-15T00:22:22.385Z,15.73
2018-07-15T00:22:26.603Z,15.73
2018-07-15T00:22:30.604Z,15.73
2018-07-15T00:22:34.713Z,15.73
2018-07-15T00:22:38.920Z,15.73
2018-07-15T00:22:43.245Z,15.73
2018-07-15T00:22:47.559Z,15.73
2018-07-15T00:22:51.870Z,15.73
2018-07-15T00:22:56.087Z,15.74
2018-07-15T00:23:00.402Z,15.74
2018-07-15T00:23:04.517Z,15.74
2018-07-15T00:23:08.850Z,15.74
2018-07-15T00:23:13.163Z,15.75
2018-07-15T00:23:17.483Z,15.74
2018-07-15T00:23:21.687Z,15.74
2018-07-15T00:23:25.893Z,15.73
2018-07-15T00:23:30.203Z,15.74
2018-07-15T00:23:34.512Z,15.73
2018-07-15T00:23:38.714Z,15.73
2018-07-15T00:23:42.912Z,15.74
2018-07-15T00:23:47.008Z,15.74
2018-07-15T00:23:51.210Z,15.73
2018-07-15T00:23:55.524Z,15.74
2018-07-15T00:23:59.722Z,15.73
2018-07-15T00:24:03.938Z,15.73
2018-07-15T00:24:08.041Z,15.73
2018-07-15T00:24:12.349Z,15.73
2018-07-15T00:24:16.448Z,15.73
2018-07-15T00:24:20.776Z,15.73
2018-07-15T00:24:24.977Z,15.72
2018-07-15T00:24:29.068Z,15.73
2018-07-15T00:24:33.168Z,15.73
2018-07-15T00:24:37.268Z,15.74
2018-07-15T00:24:41.364Z,15.74
2018-07-15T00:24:45.460Z,15.74
2018-07-15T00:24:49.658Z,15.74
2018-07-15T00:24:53.862Z,15.72
2018-07-15T00:24:57.957Z,15.73
2018-07-15T00:25:02.170Z,15.74
2018-07-15T00:25:06.374Z,15.73
2018-07-15T00:25:10.591Z,15.73
2018-07-15T00:25:14.906Z,15.72
2018-07-15T00:25:19.104Z,15.73
2018-07-15T00:25:23.410Z,15.72
2018-07-15T00:25:27.621Z,15.72
2018-07-15T00:25:31.930Z,15.71
2018-07-15T00:25:36.135Z,15.72
2018-07-15T00:25:40.461Z,15.71
2018-07-15T00:25:44.770Z,15.71
2018-07-15T00:25:49.083Z,15.72
2018-07-15T00:25:53.287Z,15.72
2018-07-15T00:25:57.501Z,15.72
2018-07-15T00:26:01.696Z,15.72
2018-07-15T00:26:06.011Z,15.72
2018-07-15T00:26:10.107Z,15.71
2018-07-15T00:26:14.420Z,15.71
2018-07-15T00:26:18.629Z,15.71
2018-07-15T00:26:22.831Z,15.71
2018-07-15T00:26:27.146Z,15.71
2018-07-15T00:26:31.470Z,15.72
2018-07-15T00:26:35.679Z,15.72
2018-07-15T00:26:39.994Z,15.72
2018-07-15T00:26:44.098Z,15.71
2018-07-15T00:26:48.298Z,15.71
2018-07-15T00:26:52.510Z,15.71
2018-07-15T00:26:56.605Z,15.72
2018-07-15T00:27:00.805Z,15.71
2018-07-15T00:27:04.904Z,15.71
2018-07-15T00:27:09.123Z,15.71
2018-07-15T00:27:13.437Z,15.71
2018-07-15T00:27:17.753Z,15.71
2018-07-15T00:27:21.952Z,15.71
2018-07-15T00:27:26.261Z,15.71
2018-07-15T00:27:30.587Z,15.7
2018-07-15T00:27:34.899Z,15.7
2018-07-15T00:27:39.108Z,15.71
2018-07-15T00:27:43.206Z,15.7
2018-07-15T00:27:47.300Z,15.69
2018-07-15T00:27:51.509Z,15.7
2018-07-15T00:27:55.710Z,15.7
2018-07-15T00:27:59.917Z,15.7
2018-07-15T00:28:04.121Z,15.7
2018-07-15T00:28:08.219Z,15.69
2018-07-15T00:28:12.529Z,15.7
2018-07-15T00:28:16.737Z,15.7
2018-07-15T00:28:20.936Z,15.69
2018-07-15T00:28:25.240Z,15.69
2018-07-15T00:28:29.442Z,15.69
2018-07-15T00:28:33.755Z,15.69
2018-07-15T00:28:38.069Z,15.69
2018-07-15T00:28:42.171Z,15.7
2018-07-15T00:28:46.376Z,15.69
2018-07-15T00:28:50.578Z,15.69
2018-07-15T00:28:54.781Z,15.69
2018-07-15T00:28:59.090Z,15.7
2018-07-15T00:29:03.288Z,15.69
2018-07-15T00:29:07.491Z,15.69
2018-07-15T00:29:11.696Z,15.69
2018-07-15T00:29:16.010Z,15.69
2018-07-15T00:29:20.107Z,15.69
2018-07-15T00:29:24.324Z,15.68
2018-07-15T00:29:28.527Z,15.69
2018-07-15T00:29:32.864Z,15.69
2018-07-15T00:29:37.095Z,15.68
2018-07-15T00:29:41.295Z,15.69
2018-07-15T00:29:45.396Z,15.68
2018-07-15T00:29:49.598Z,15.68
2018-07-15T00:29:53.915Z,15.68
2018-07-15T00:29:58.118Z,15.67
2018-07-15T00:30:02.445Z,15.68
2018-07-15T00:30:06.545Z,15.68
2018-07-15T00:30:10.897Z,15.68
2018-07-15T00:30:15.104Z,15.68
2018-07-15T00:30:19.309Z,15.67
2018-07-15T00:30:23.409Z,15.68
2018-07-15T00:30:27.507Z,15.68
2018-07-15T00:30:31.717Z,15.68
2018-07-15T00:30:35.809Z,15.67
2018-07-15T00:30:40.136Z,15.68
2018-07-15T00:30:44.339Z,15.67
2018-07-15T00:30:48.443Z,15.68
2018-07-15T00:30:52.749Z,15.68
2018-07-15T00:30:56.841Z,15.67
2018-07-15T00:31:01.200Z,15.68
2018-07-15T00:31:05.198Z,15.68
2018-07-15T00:31:09.293Z,15.67
2018-07-15T00:31:13.610Z,15.68
2018-07-15T00:31:17.810Z,15.68
2018-07-15T00:31:21.913Z,15.67
2018-07-15T00:31:26.239Z,15.68
2018-07-15T00:31:30.441Z,15.68
2018-07-15T00:31:34.652Z,15.68
2018-07-15T00:31:38.855Z,15.68
2018-07-15T00:31:43.171Z,15.68
2018-07-15T00:31:47.276Z,15.68
2018-07-15T00:31:51.589Z,15.68
2018-07-15T00:31:55.900Z,15.68
2018-07-15T00:32:00.212Z,15.68
2018-07-15T00:32:04.487Z,15.68
2018-07-15T00:32:08.589Z,15.69
2018-07-15T00:32:12.794Z,15.68
2018-07-15T00:32:16.996Z,15.69
2018-07-15T00:32:21.195Z,15.69
2018-07-15T00:32:25.406Z,15.69
2018-07-15T00:32:29.714Z,15.68
2018-07-15T00:32:33.924Z,15.68
2018-07-15T00:32:38.242Z,15.69
2018-07-15T00:32:42.561Z,15.69
2018-07-15T00:32:46.767Z,15.69
2018-07-15T00:32:50.870Z,15.69
2018-07-15T00:32:55.178Z,15.69
2018-07-15T00:32:59.278Z,15.69
2018-07-15T00:33:03.482Z,15.69
2018-07-15T00:33:07.799Z,15.69
2018-07-15T00:33:11.999Z,15.69
2018-07-15T00:33:16.318Z,15.68
2018-07-15T00:33:20.425Z,15.69
2018-07-15T00:33:24.523Z,15.69
2018-07-15T00:33:28.834Z,15.69
2018-07-15T00:33:33.041Z,15.69
2018-07-15T00:33:37.246Z,15.69
2018-07-15T00:33:41.599Z,15.69
2018-07-15T00:33:45.480Z,15.69
2018-07-15T00:33:49.787Z,15.7
2018-07-15T00:33:53.989Z,15.69
2018-07-15T00:33:58.193Z,15.7
2018-07-15T00:34:02.296Z,15.7
2018-07-15T00:34:06.286Z,15.7
2018-07-15T00:34:10.380Z,15.7
2018-07-15T00:34:14.700Z,15.69
2018-07-15T00:34:18.906Z,15.7
2018-07-15T00:34:23.216Z,15.69
2018-07-15T00:34:27.209Z,15.69
2018-07-15T00:34:31.411Z,15.69
2018-07-15T00:34:35.614Z,15.69
2018-07-15T00:34:39.813Z,15.69
2018-07-15T00:34:44.120Z,15.69
2018-07-15T00:34:48.213Z,15.69
2018-07-15T00:34:52.321Z,15.69
2018-07-15T00:34:56.635Z,15.68
2018-07-15T00:35:00.948Z,15.68
2018-07-15T00:35:04.935Z,15.68
2018-07-15T00:35:09.038Z,15.68
2018-07-15T00:35:13.372Z,15.69
2018-07-15T00:35:17.578Z,15.68
2018-07-15T00:35:21.680Z,15.68
2018-07-15T00:35:25.877Z,15.68
2018-07-15T00:35:30.189Z,15.67
2018-07-15T00:35:34.391Z,15.68
2018-07-15T00:35:38.595Z,15.68
2018-07-15T00:35:42.912Z,15.67
2018-07-15T00:35:47.232Z,15.67
2018-07-15T00:35:51.545Z,15.67
2018-07-15T00:35:55.862Z,15.67
2018-07-15T00:35:59.954Z,15.67
2018-07-15T00:36:04.160Z,15.67
2018-07-15T00:36:08.150Z,15.67
2018-07-15T00:36:12.502Z,15.66
2018-07-15T00:36:16.807Z,15.67
2018-07-15T00:36:21.120Z,15.67
2018-07-15T00:36:25.438Z,15.68
2018-07-15T00:36:29.751Z,15.67
2018-07-15T00:36:33.953Z,15.67
2018-07-15T00:36:38.159Z,15.67
2018-07-15T00:36:42.376Z,15.67
2018-07-15T00:36:46.372Z,15.67
2018-07-15T00:36:50.592Z,15.68
2018-07-15T00:36:54.796Z,15.68
2018-07-15T00:36:58.999Z,15.67
2018-07-15T00:37:02.886Z,15.68
2018-07-15T00:37:07.102Z,15.68
2018-07-15T00:37:11.092Z,15.68
2018-07-15T00:37:15.299Z,15.69
2018-07-15T00:37:19.508Z,15.69
2018-07-15T00:37:23.837Z,15.7
2018-07-15T00:37:28.038Z,15.69
2018-07-15T00:37:32.358Z,15.7
2018-07-15T00:37:36.560Z,15.7
2018-07-15T00:37:40.865Z,15.7
2018-07-15T00:37:45.069Z,15.7
2018-07-15T00:37:49.270Z,15.7
2018-07-15T00:37:53.525Z,15.7
2018-07-15T00:37:57.626Z,15.7
2018-07-15T00:38:01.829Z,15.71
2018-07-15T00:38:06.051Z,15.7
2018-07-15T00:38:10.149Z,15.71
2018-07-15T00:38:14.357Z,15.71
2018-07-15T00:38:18.554Z,15.72
2018-07-15T00:38:22.865Z,15.72
2018-07-15T00:38:27.083Z,15.71
2018-07-15T00:38:31.180Z,15.71
2018-07-15T00:38:35.511Z,15.72
2018-07-15T00:38:39.821Z,15.72
2018-07-15T00:38:44.029Z,15.72
2018-07-15T00:38:48.245Z,15.73
2018-07-15T00:38:52.444Z,15.73
2018-07-15T00:38:56.542Z,15.73
2018-07-15T00:39:00.757Z,15.73
2018-07-15T00:39:04.854Z,15.74
2018-07-15T00:39:09.050Z,15.73
2018-07-15T00:39:13.373Z,15.73
2018-07-15T00:39:17.685Z,15.73
2018-07-15T00:39:22.055Z,15.74
2018-07-15T00:39:26.165Z,15.74
2018-07-15T00:39:30.369Z,15.76
2018-07-15T00:39:34.683Z,15.75
2018-07-15T00:39:38.995Z,15.76
2018-07-15T00:39:43.197Z,15.76
2018-07-15T00:39:47.396Z,15.75
2018-07-15T00:39:51.701Z,15.77
2018-07-15T00:39:56.007Z,15.76
2018-07-15T00:39:59.996Z,15.77
2018-07-15T00:40:04.306Z,15.76
2018-07-15T00:40:08.188Z,15.77
2018-07-15T00:40:12.387Z,15.76
2018-07-15T00:40:16.587Z,15.76
2018-07-15T00:40:20.899Z,15.77
2018-07-15T00:40:24.996Z,15.77
2018-07-15T00:40:29.199Z,15.78
2018-07-15T00:40:33.395Z,15.77
2018-07-15T00:40:37.595Z,15.78
2018-07-15T00:40:41.795Z,15.78
2018-07-15T00:40:46.001Z,15.78
2018-07-15T00:40:50.112Z,15.79
2018-07-15T00:40:54.317Z,15.78
2018-07-15T00:40:58.546Z,15.78
2018-07-15T00:41:02.756Z,15.79
2018-07-15T00:41:06.969Z,15.79
2018-07-15T00:41:11.280Z,15.78
2018-07-15T00:41:15.600Z,15.79
2018-07-15T00:41:19.700Z,15.8
2018-07-15T00:41:24.078Z,15.79
2018-07-15T00:41:28.070Z,15.8
2018-07-15T00:41:32.374Z,15.8
2018-07-15T00:41:36.579Z,15.8
2018-07-15T00:41:40.892Z,15.79
2018-07-15T00:41:45.203Z,15.8
2018-07-15T00:41:49.515Z,15.8
2018-07-15T00:41:53.720Z,15.8
2018-07-15T00:41:57.931Z,15.81
2018-07-15T00:42:02.136Z,15.8
2018-07-15T00:42:06.124Z,15.8
2018-07-15T00:42:10.333Z,15.81
2018-07-15T00:42:14.547Z,15.81
2018-07-15T00:42:18.751Z,15.81
2018-07-15T00:42:22.957Z,15.8
2018-07-15T00:42:27.156Z,15.8
2018-07-15T00:42:31.359Z,15.82
2018-07-15T00:42:35.561Z,15.81
2018-07-15T00:42:39.871Z,15.81
2018-07-15T00:42:44.083Z,15.81
2018-07-15T00:42:48.179Z,15.81
2018-07-15T00:42:52.385Z,15.81
2018-07-15T00:42:56.484Z,15.8
2018-07-15T00:43:00.685Z,15.81
2018-07-15T00:43:04.894Z,15.81
2018-07-15T00:43:09.197Z,15.8
2018-07-15T00:43:13.501Z,15.8
2018-07-15T00:43:17.595Z,15.81
2018-07-15T00:43:21.797Z,15.81
2018-07-15T00:43:26.112Z,15.81
2018-07-15T00:43:30.215Z,15.81
2018-07-15T00:43:34.532Z,15.81
2018-07-15T00:43:38.846Z,15.81
2018-07-15T00:43:43.155Z,15.8
2018-07-15T00:43:47.358Z,15.81
2018-07-15T00:43:51.454Z,15.81
2018-07-15T00:43:55.658Z,15.82
2018-07-15T00:43:59.978Z,15.8
2018-07-15T00:44:04.200Z,15.8
2018-07-15T00:44:08.295Z,15.81
2018-07-15T00:44:12.285Z,15.81
2018-07-15T00:44:16.599Z,15.8
2018-07-15T00:44:20.912Z,15.79
2018-07-15T00:44:25.117Z,15.8
2018-07-15T00:44:29.379Z,15.79
2018-07-15T00:44:33.585Z,15.79
2018-07-15T00:44:37.898Z,15.8
2018-07-15T00:44:42.221Z,15.8
2018-07-15T00:44:46.205Z,15.79
2018-07-15T00:44:50.306Z,15.79
2018-07-15T00:44:54.612Z,15.8
2018-07-15T00:44:58.976Z,15.79
2018-07-15T00:45:02.871Z,15.79
2018-07-15T00:45:06.870Z,15.81
2018-07-15T00:45:11.186Z,15.8
2018-07-15T00:45:15.386Z,15.79
2018-07-15T00:45:19.477Z,15.79
2018-07-15T00:45:23.789Z,15.8
2018-07-15T00:45:27.890Z,15.79
2018-07-15T00:45:32.094Z,15.79
2018-07-15T00:45:36.296Z,15.79
2018-07-15T00:45:40.507Z,15.79
2018-07-15T00:45:44.712Z,15.78
2018-07-15T00:45:48.907Z,15.79
2018-07-15T00:45:53.114Z,15.79
2018-07-15T00:45:57.317Z,15.78
2018-07-15T00:46:01.733Z,15.78
2018-07-15T00:46:05.628Z,15.78
2018-07-15T00:46:09.829Z,15.77
2018-07-15T00:46:14.037Z,15.78
2018-07-15T00:46:18.245Z,15.78
2018-07-15T00:46:22.551Z,15.78
2018-07-15T00:46:26.645Z,15.78
2018-07-15T00:46:30.849Z,15.78
2018-07-15T00:46:35.202Z,15.78
2018-07-15T00:46:39.410Z,15.79
2018-07-15T00:46:43.508Z,15.78
2018-07-15T00:46:47.709Z,15.78
2018-07-15T00:46:51.912Z,15.78
2018-07-15T00:46:56.127Z,15.78
2018-07-15T00:47:00.439Z,15.78
2018-07-15T00:47:04.532Z,15.79
2018-07-15T00:47:08.754Z,15.78
2018-07-15T00:47:12.960Z,15.79
2018-07-15T00:47:17.159Z,15.78
2018-07-15T00:47:21.466Z,15.78
2018-07-15T00:47:25.670Z,15.78
2018-07-15T00:47:29.882Z,15.79
2018-07-15T00:47:34.100Z,15.78
2018-07-15T00:47:38.308Z,15.78
2018-07-15T00:47:42.544Z,15.78
2018-07-15T00:47:46.875Z,15.79
2018-07-15T00:47:50.861Z,15.78
2018-07-15T00:47:55.062Z,15.78
2018-07-15T00:47:59.267Z,15.79
2018-07-15T00:48:03.589Z,15.79
2018-07-15T00:48:07.801Z,15.78
2018-07-15T00:48:11.894Z,15.79
2018-07-15T00:48:16.096Z,15.78
2018-07-15T00:48:20.396Z,15.78
2018-07-15T00:48:24.592Z,15.78
2018-07-15T00:48:28.789Z,15.78
2018-07-15T00:48:32.986Z,15.79
2018-07-15T00:48:37.189Z,15.78
2018-07-15T00:48:41.509Z,15.79
2018-07-15T00:48:45.716Z,15.77
2018-07-15T00:48:49.915Z,15.78
2018-07-15T00:48:54.223Z,15.77
2018-07-15T00:48:58.581Z,15.77
2018-07-15T00:49:02.804Z,15.78
2018-07-15T00:49:07.016Z,15.77
2018-07-15T00:49:11.222Z,15.77
2018-07-15T00:49:15.430Z,15.78
2018-07-15T00:49:19.643Z,15.77
2018-07-15T00:49:23.951Z,15.77
2018-07-15T00:49:28.049Z,15.77
2018-07-15T00:49:32.162Z,15.77
2018-07-15T00:49:36.371Z,15.77
2018-07-15T00:49:40.688Z,15.76
2018-07-15T00:49:44.781Z,15.76
2018-07-15T00:49:48.991Z,15.77
2018-07-15T00:49:53.306Z,15.76
2018-07-15T00:49:57.515Z,15.77
2018-07-15T00:50:01.722Z,15.76
2018-07-15T00:50:05.605Z,15.76
2018-07-15T00:50:09.720Z,15.76
2018-07-15T00:50:14.032Z,15.75
2018-07-15T00:50:18.335Z,15.75
2018-07-15T00:50:22.217Z,15.75
2018-07-15T00:50:26.419Z,15.75
2018-07-15T00:50:30.619Z,15.76
2018-07-15T00:50:34.978Z,15.75
2018-07-15T00:50:39.289Z,15.75
2018-07-15T00:50:43.502Z,15.74
2018-07-15T00:50:47.864Z,15.75
2018-07-15T00:50:52.183Z,15.75
2018-07-15T00:50:56.386Z,15.74
2018-07-15T00:51:00.698Z,15.74
2018-07-15T00:51:04.694Z,15.74
2018-07-15T00:51:08.787Z,15.74
2018-07-15T00:51:12.999Z,15.74
2018-07-15T00:51:17.314Z,15.74
2018-07-15T00:51:21.625Z,15.75
2018-07-15T00:51:25.731Z,15.74
2018-07-15T00:51:30.036Z,15.73
2018-07-15T00:51:34.235Z,15.73
2018-07-15T00:51:38.537Z,15.74
2018-07-15T00:51:42.848Z,15.74
2018-07-15T00:51:46.945Z,15.74
2018-07-15T00:51:50.942Z,15.73
2018-07-15T00:51:54.954Z,15.73
2018-07-15T00:51:59.261Z,15.73
2018-07-15T00:52:03.251Z,15.73
2018-07-15T00:52:07.249Z,15.72
2018-07-15T00:52:11.339Z,15.72
2018-07-15T00:52:15.334Z,15.72
2018-07-15T00:52:19.539Z,15.72
2018-07-15T00:52:23.649Z,15.71
2018-07-15T00:52:27.750Z,15.72
2018-07-15T00:52:32.057Z,15.72
2018-07-15T00:52:36.252Z,15.72
2018-07-15T00:52:40.349Z,15.71
2018-07-15T00:52:44.554Z,15.72
2018-07-15T00:52:48.768Z,15.71
2018-07-15T00:52:52.974Z,15.7
2018-07-15T00:52:57.083Z,15.71
2018-07-15T00:53:01.285Z,15.71
2018-07-15T00:53:05.495Z,15.71
2018-07-15T00:53:09.803Z,15.7
2018-07-15T00:53:14.014Z,15.7
2018-07-15T00:53:18.367Z,15.69
2018-07-15T00:53:22.678Z,15.7
2018-07-15T00:53:26.881Z,15.69
2018-07-15T00:53:31.195Z,15.69
2018-07-15T00:53:35.499Z,15.69
2018-07-15T00:53:39.698Z,15.69
2018-07-15T00:53:43.795Z,15.69
2018-07-15T00:53:47.996Z,15.69
2018-07-15T00:53:52.194Z,15.68
2018-07-15T00:53:56.512Z,15.68
2018-07-15T00:54:00.740Z,15.68
2018-07-15T00:54:04.951Z,15.68
2018-07-15T00:54:08.939Z,15.68
2018-07-15T00:54:13.239Z,15.68
2018-07-15T00:54:17.563Z,15.68
2018-07-15T00:54:21.764Z,15.67
2018-07-15T00:54:25.855Z,15.68
2018-07-15T00:54:30.166Z,15.68
2018-07-15T00:54:34.367Z,15.68